DLH6PJ EDDH-EDDF
Flight info
| Callsign | DLH6PJ |
|---|---|
| Flight time | 0h 47m |
| Altitude | 30000 |
| Route | AMLUH2C AMLUH M852 DENIX DCT RIMET/N0403F310 T157 KOKEB/N0352F230 T157 KERAX KERAX5A |
| Aircraft | A320/M-SDE2E3FGIJ1LORWXYZ/HB1 |
Departure
| Time | 2026-05-05 12:31 |
|---|---|
| Airport | Hamburg Helmut Schmidt Airport (EDDH) |
Arrival
| Time | 2026-05-05 13:18 |
|---|---|
| Airport | Frankfurt Main Airport (EDDF) |
| Time | Latitude | Longitude | Altitude | Speed | Heading |
|---|---|---|---|---|---|
| 2026-05-05 12:00 | 53.63206 | 10.00361 | 50 ft | 0 kts | 86° |
| 2026-05-05 12:23 | 53.63205 | 10.00349 | 48 ft | 4 kts | 86° |
| 2026-05-05 12:23 | 53.63204 | 10.00313 | 48 ft | 4 kts | 88° |
| 2026-05-05 12:23 | 53.63206 | 10.00270 | 48 ft | 4 kts | 119° |
| 2026-05-05 12:23 | 53.63222 | 10.00246 | 43 ft | 2 kts | 175° |
| 2026-05-05 12:24 | 53.63224 | 10.00246 | 43 ft | 0 kts | 176° |
| 2026-05-05 12:27 | 53.63215 | 10.00247 | 42 ft | 2 kts | 176° |
| 2026-05-05 12:27 | 53.63170 | 10.00252 | 48 ft | 10 kts | 176° |
| 2026-05-05 12:27 | 53.63101 | 10.00260 | 48 ft | 9 kts | 176° |
| 2026-05-05 12:28 | 53.63044 | 10.00236 | 47 ft | 8 kts | 211° |
| 2026-05-05 12:28 | 53.62998 | 10.00188 | 48 ft | 7 kts | 212° |
| 2026-05-05 12:28 | 53.62958 | 10.00144 | 47 ft | 7 kts | 212° |
| 2026-05-05 12:28 | 53.62900 | 10.00082 | 47 ft | 10 kts | 213° |
| 2026-05-05 12:29 | 53.62857 | 9.99999 | 48 ft | 9 kts | 243° |
| 2026-05-05 12:29 | 53.62827 | 9.99901 | 47 ft | 10 kts | 243° |
| 2026-05-05 12:29 | 53.62821 | 9.99794 | 45 ft | 9 kts | 309° |
| 2026-05-05 12:29 | 53.62867 | 9.99747 | 45 ft | 4 kts | 333° |
| 2026-05-05 12:30 | 53.62873 | 9.99742 | 45 ft | 0 kts | 333° |
| 2026-05-05 12:30 | 53.63114 | 9.99532 | 46 ft | 80 kts | 333° |
| 2026-05-05 12:30 | 53.63815 | 9.98926 | 49 ft | 143 kts | 333° |
| 2026-05-05 12:30 | 53.64799 | 9.98075 | 476 ft | 161 kts | 333° |
| 2026-05-05 12:31 | 53.65805 | 9.97240 | 1296 ft | 162 kts | 333° |
| 2026-05-05 12:31 | 53.66870 | 9.96331 | 1828 ft | 182 kts | 332° |
| 2026-05-05 12:31 | 53.68079 | 9.95287 | 2221 ft | 210 kts | 333° |
| 2026-05-05 12:31 | 53.69511 | 9.94596 | 3015 ft | 219 kts | 360° |
| 2026-05-05 12:32 | 53.71046 | 9.94719 | 3948 ft | 222 kts | 2° |
| 2026-05-05 12:32 | 53.72566 | 9.95187 | 4857 ft | 227 kts | 28° |
| 2026-05-05 12:32 | 53.73618 | 9.97140 | 5716 ft | 232 kts | 70° |
| 2026-05-05 12:32 | 53.73930 | 9.99814 | 6631 ft | 234 kts | 81° |
| 2026-05-05 12:33 | 53.74028 | 10.02563 | 7517 ft | 236 kts | 96° |
| 2026-05-05 12:33 | 53.73640 | 10.05308 | 8201 ft | 252 kts | 113° |
| 2026-05-05 12:33 | 53.72766 | 10.08023 | 8664 ft | 276 kts | 120° |
| 2026-05-05 12:33 | 53.71756 | 10.10932 | 9191 ft | 296 kts | 120° |
| 2026-05-05 12:34 | 53.70734 | 10.13927 | 10232 ft | 295 kts | 120° |
| 2026-05-05 12:34 | 53.69583 | 10.16872 | 10690 ft | 316 kts | 130° |
| 2026-05-05 12:34 | 53.67942 | 10.19522 | 11368 ft | 327 kts | 143° |
| 2026-05-05 12:34 | 53.66003 | 10.21469 | 12180 ft | 332 kts | 156° |
| 2026-05-05 12:35 | 53.63802 | 10.22703 | 12990 ft | 336 kts | 165° |
| 2026-05-05 12:35 | 53.61544 | 10.23735 | 13799 ft | 340 kts | 165° |
| 2026-05-05 12:35 | 53.59247 | 10.24782 | 14584 ft | 344 kts | 165° |
| 2026-05-05 12:35 | 53.56929 | 10.25842 | 15336 ft | 348 kts | 165° |
| 2026-05-05 12:36 | 53.54579 | 10.26920 | 16060 ft | 352 kts | 165° |
| 2026-05-05 12:36 | 53.52207 | 10.28004 | 16772 ft | 355 kts | 165° |
| 2026-05-05 12:36 | 53.49811 | 10.29099 | 17470 ft | 359 kts | 165° |
| 2026-05-05 12:36 | 53.47386 | 10.30206 | 18154 ft | 363 kts | 165° |
| 2026-05-05 12:37 | 53.44940 | 10.31322 | 18812 ft | 366 kts | 165° |
| 2026-05-05 12:37 | 53.42466 | 10.32448 | 19467 ft | 370 kts | 165° |
| 2026-05-05 12:37 | 53.39967 | 10.33579 | 20100 ft | 374 kts | 165° |
| 2026-05-05 12:37 | 53.37446 | 10.34715 | 20714 ft | 377 kts | 165° |
| 2026-05-05 12:38 | 53.34901 | 10.35861 | 21315 ft | 381 kts | 165° |
| 2026-05-05 12:38 | 53.32331 | 10.37013 | 21889 ft | 384 kts | 165° |
| 2026-05-05 12:38 | 53.29738 | 10.38171 | 22447 ft | 387 kts | 165° |
| 2026-05-05 12:38 | 53.27126 | 10.39336 | 22982 ft | 391 kts | 165° |
| 2026-05-05 12:39 | 53.24489 | 10.40514 | 23507 ft | 394 kts | 165° |
| 2026-05-05 12:39 | 53.21829 | 10.41704 | 24027 ft | 397 kts | 165° |
| 2026-05-05 12:39 | 53.19153 | 10.42901 | 24529 ft | 400 kts | 165° |
| 2026-05-05 12:39 | 53.16454 | 10.44105 | 25008 ft | 403 kts | 165° |
| 2026-05-05 12:40 | 53.13712 | 10.45129 | 25475 ft | 406 kts | 172° |
| 2026-05-05 12:40 | 53.10884 | 10.45403 | 25930 ft | 408 kts | 182° |
| 2026-05-05 12:40 | 53.08046 | 10.45041 | 26374 ft | 411 kts | 185° |
| 2026-05-05 12:40 | 53.05189 | 10.44632 | 26814 ft | 414 kts | 185° |
| 2026-05-05 12:41 | 53.02303 | 10.44228 | 27249 ft | 417 kts | 185° |
| 2026-05-05 12:41 | 52.99405 | 10.43831 | 27666 ft | 420 kts | 185° |
| 2026-05-05 12:41 | 52.96487 | 10.43436 | 28077 ft | 422 kts | 185° |
| 2026-05-05 12:41 | 52.93543 | 10.43039 | 28479 ft | 425 kts | 185° |
| 2026-05-05 12:42 | 52.90588 | 10.42638 | 28870 ft | 428 kts | 185° |
| 2026-05-05 12:42 | 52.87617 | 10.42231 | 29251 ft | 430 kts | 185° |
| 2026-05-05 12:42 | 52.84626 | 10.41819 | 29626 ft | 433 kts | 185° |
| 2026-05-05 12:42 | 52.81619 | 10.41410 | 29930 ft | 435 kts | 185° |
| 2026-05-05 12:43 | 52.75678 | 10.40611 | 30021 ft | 424 kts | 185° |
| 2026-05-05 12:43 | 52.72693 | 10.40209 | 30015 ft | 437 kts | 185° |
| 2026-05-05 12:43 | 52.69620 | 10.39794 | 30007 ft | 448 kts | 185° |
| 2026-05-05 12:44 | 52.63265 | 10.38943 | 30010 ft | 467 kts | 185° |
| 2026-05-05 12:44 | 52.57857 | 10.38217 | 30005 ft | 471 kts | 185° |
| 2026-05-05 12:45 | 52.51322 | 10.37342 | 30005 ft | 471 kts | 185° |
| 2026-05-05 12:45 | 52.44786 | 10.36466 | 30004 ft | 471 kts | 185° |
| 2026-05-05 12:46 | 52.38250 | 10.35586 | 30006 ft | 471 kts | 185° |
| 2026-05-05 12:46 | 52.31706 | 10.34708 | 30019 ft | 471 kts | 185° |
| 2026-05-05 12:47 | 52.25175 | 10.33841 | 30000 ft | 471 kts | 185° |
| 2026-05-05 12:47 | 52.18640 | 10.32973 | 29997 ft | 471 kts | 185° |
| 2026-05-05 12:48 | 52.12062 | 10.32114 | 29998 ft | 471 kts | 185° |
| 2026-05-05 12:48 | 52.05563 | 10.31263 | 29996 ft | 472 kts | 185° |
| 2026-05-05 12:49 | 51.99026 | 10.30409 | 29996 ft | 472 kts | 185° |
| 2026-05-05 12:49 | 51.92480 | 10.29548 | 29993 ft | 472 kts | 185° |
| 2026-05-05 12:50 | 51.85942 | 10.28699 | 29989 ft | 472 kts | 185° |
| 2026-05-05 12:50 | 51.79398 | 10.27849 | 29985 ft | 472 kts | 185° |
| 2026-05-05 12:51 | 51.72843 | 10.27003 | 29988 ft | 473 kts | 185° |
| 2026-05-05 12:51 | 51.66285 | 10.26156 | 29992 ft | 472 kts | 185° |
| 2026-05-05 12:52 | 51.59735 | 10.25311 | 29997 ft | 472 kts | 185° |
| 2026-05-05 12:52 | 51.53187 | 10.24470 | 29997 ft | 472 kts | 185° |
| 2026-05-05 12:53 | 51.46640 | 10.23639 | 29997 ft | 472 kts | 185° |
| 2026-05-05 12:53 | 51.40090 | 10.22802 | 29984 ft | 473 kts | 185° |
| 2026-05-05 12:54 | 51.33630 | 10.21874 | 29236 ft | 454 kts | 191° |
| 2026-05-05 12:54 | 51.30629 | 10.20513 | 28721 ft | 445 kts | 199° |
| 2026-05-05 12:54 | 51.27752 | 10.18942 | 28089 ft | 428 kts | 199° |
| 2026-05-05 12:55 | 51.24990 | 10.17420 | 27488 ft | 412 kts | 199° |
| 2026-05-05 12:55 | 51.22299 | 10.15938 | 26973 ft | 407 kts | 199° |
| 2026-05-05 12:55 | 51.19641 | 10.14475 | 26443 ft | 402 kts | 199° |
| 2026-05-05 12:55 | 51.17005 | 10.13025 | 25919 ft | 398 kts | 199° |
| 2026-05-05 12:56 | 51.14398 | 10.11593 | 25391 ft | 394 kts | 199° |
| 2026-05-05 12:56 | 51.11818 | 10.10176 | 24867 ft | 391 kts | 199° |
| 2026-05-05 12:56 | 51.09259 | 10.08772 | 24340 ft | 387 kts | 199° |
| 2026-05-05 12:56 | 51.06722 | 10.07382 | 23816 ft | 384 kts | 199° |
| 2026-05-05 12:57 | 51.04212 | 10.06008 | 23286 ft | 381 kts | 199° |
| 2026-05-05 12:57 | 51.01716 | 10.04643 | 22735 ft | 379 kts | 199° |
| 2026-05-05 12:57 | 50.99224 | 10.03281 | 22184 ft | 377 kts | 199° |
| 2026-05-05 12:57 | 50.96749 | 10.01930 | 21634 ft | 376 kts | 199° |
| 2026-05-05 12:58 | 50.94278 | 10.00581 | 21086 ft | 375 kts | 199° |
| 2026-05-05 12:58 | 50.91817 | 9.99240 | 20531 ft | 373 kts | 199° |
| 2026-05-05 12:58 | 50.89363 | 9.97903 | 19979 ft | 372 kts | 199° |
| 2026-05-05 12:58 | 50.86918 | 9.96572 | 19429 ft | 371 kts | 199° |
| 2026-05-05 12:59 | 50.84483 | 9.95248 | 18878 ft | 370 kts | 199° |
| 2026-05-05 12:59 | 50.82049 | 9.93926 | 18325 ft | 369 kts | 199° |
| 2026-05-05 12:59 | 50.79628 | 9.92611 | 17781 ft | 368 kts | 199° |
| 2026-05-05 13:00 | 50.74801 | 9.89995 | 16674 ft | 366 kts | 199° |
| 2026-05-05 13:00 | 50.72415 | 9.88703 | 16121 ft | 357 kts | 199° |
| 2026-05-05 13:01 | 50.65477 | 9.84953 | 14766 ft | 347 kts | 199° |
| 2026-05-05 13:01 | 50.63201 | 9.83725 | 14315 ft | 345 kts | 199° |
| 2026-05-05 13:01 | 50.60939 | 9.82506 | 13863 ft | 342 kts | 199° |
| 2026-05-05 13:01 | 50.58695 | 9.81297 | 13413 ft | 340 kts | 199° |
| 2026-05-05 13:02 | 50.56493 | 9.80112 | 12962 ft | 336 kts | 199° |
| 2026-05-05 13:02 | 50.54300 | 9.78933 | 12428 ft | 323 kts | 199° |
| 2026-05-05 13:02 | 50.52215 | 9.77814 | 11928 ft | 311 kts | 199° |
| 2026-05-05 13:02 | 50.50205 | 9.76736 | 11428 ft | 301 kts | 199° |
| 2026-05-05 13:03 | 50.48244 | 9.75686 | 10924 ft | 295 kts | 199° |
| 2026-05-05 13:03 | 50.46340 | 9.74668 | 10378 ft | 293 kts | 199° |
| 2026-05-05 13:03 | 50.44410 | 9.73636 | 9816 ft | 294 kts | 199° |
| 2026-05-05 13:03 | 50.42474 | 9.72602 | 9401 ft | 293 kts | 199° |
| 2026-05-05 13:04 | 50.40556 | 9.71563 | 9083 ft | 289 kts | 202° |
| 2026-05-05 13:04 | 50.38797 | 9.70044 | 8996 ft | 285 kts | 213° |
| 2026-05-05 13:04 | 50.37163 | 9.68357 | 9016 ft | 285 kts | 214° |
| 2026-05-05 13:04 | 50.35513 | 9.66630 | 9016 ft | 286 kts | 214° |
| 2026-05-05 13:05 | 50.33935 | 9.64749 | 9013 ft | 285 kts | 222° |
| 2026-05-05 13:05 | 50.32487 | 9.62629 | 8988 ft | 285 kts | 224° |
| 2026-05-05 13:05 | 50.31102 | 9.60414 | 8793 ft | 284 kts | 231° |
| 2026-05-05 13:05 | 50.29903 | 9.57964 | 8592 ft | 283 kts | 234° |
| 2026-05-05 13:06 | 50.28848 | 9.55396 | 8388 ft | 281 kts | 246° |
| 2026-05-05 13:06 | 50.28105 | 9.52556 | 8181 ft | 281 kts | 248° |
| 2026-05-05 13:06 | 50.27376 | 9.49732 | 7996 ft | 280 kts | 248° |
| 2026-05-05 13:06 | 50.26639 | 9.46874 | 7820 ft | 279 kts | 248° |
| 2026-05-05 13:07 | 50.25926 | 9.44101 | 7701 ft | 279 kts | 248° |
| 2026-05-05 13:07 | 50.25201 | 9.41285 | 7574 ft | 278 kts | 248° |
| 2026-05-05 13:07 | 50.24502 | 9.38473 | 7447 ft | 278 kts | 250° |
| 2026-05-05 13:07 | 50.23844 | 9.35637 | 7323 ft | 277 kts | 250° |
| 2026-05-05 13:08 | 50.23205 | 9.32804 | 7194 ft | 276 kts | 251° |
| 2026-05-05 13:08 | 50.22567 | 9.29975 | 7070 ft | 276 kts | 251° |
| 2026-05-05 13:08 | 50.21927 | 9.27157 | 6997 ft | 275 kts | 250° |
| 2026-05-05 13:08 | 50.21282 | 9.24344 | 7003 ft | 275 kts | 250° |
| 2026-05-05 13:09 | 50.20634 | 9.21533 | 6999 ft | 275 kts | 250° |
| 2026-05-05 13:09 | 50.19985 | 9.18725 | 7012 ft | 275 kts | 250° |
| 2026-05-05 13:09 | 50.19334 | 9.15917 | 7012 ft | 275 kts | 250° |
| 2026-05-05 13:09 | 50.18682 | 9.13114 | 7002 ft | 270 kts | 250° |
| 2026-05-05 13:10 | 50.18063 | 9.10455 | 7009 ft | 252 kts | 250° |
| 2026-05-05 13:10 | 50.17485 | 9.07975 | 7013 ft | 237 kts | 250° |
| 2026-05-05 13:10 | 50.16918 | 9.05558 | 7012 ft | 245 kts | 250° |
| 2026-05-05 13:10 | 50.16321 | 9.03016 | 6897 ft | 253 kts | 250° |
| 2026-05-05 13:11 | 50.15717 | 9.00442 | 6646 ft | 252 kts | 250° |
| 2026-05-05 13:11 | 50.15117 | 8.97882 | 6416 ft | 251 kts | 250° |
| 2026-05-05 13:11 | 50.14519 | 8.95334 | 6214 ft | 250 kts | 250° |
| 2026-05-05 13:11 | 50.13930 | 8.92827 | 5994 ft | 243 kts | 250° |
| 2026-05-05 13:12 | 50.13342 | 8.90358 | 5584 ft | 241 kts | 250° |
| 2026-05-05 13:12 | 50.12768 | 8.87931 | 5238 ft | 235 kts | 250° |
| 2026-05-05 13:12 | 50.12216 | 8.85586 | 4916 ft | 227 kts | 250° |
| 2026-05-05 13:12 | 50.11682 | 8.83315 | 4593 ft | 221 kts | 250° |
| 2026-05-05 13:13 | 50.11160 | 8.81102 | 4287 ft | 214 kts | 250° |
| 2026-05-05 13:13 | 50.10663 | 8.78995 | 4006 ft | 197 kts | 250° |
| 2026-05-05 13:13 | 50.10216 | 8.77100 | 3729 ft | 179 kts | 250° |
| 2026-05-05 13:13 | 50.09800 | 8.75341 | 3484 ft | 165 kts | 250° |
| 2026-05-05 13:14 | 50.09425 | 8.73755 | 3268 ft | 149 kts | 250° |
| 2026-05-05 13:14 | 50.09078 | 8.72289 | 3053 ft | 141 kts | 250° |
| 2026-05-05 13:14 | 50.08746 | 8.70886 | 2855 ft | 136 kts | 250° |
| 2026-05-05 13:14 | 50.08414 | 8.69478 | 2679 ft | 139 kts | 250° |
| 2026-05-05 13:15 | 50.08100 | 8.68093 | 2500 ft | 135 kts | 252° |
| 2026-05-05 13:15 | 50.07795 | 8.66706 | 2283 ft | 136 kts | 251° |
| 2026-05-05 13:15 | 50.07484 | 8.65304 | 2044 ft | 138 kts | 251° |
| 2026-05-05 13:15 | 50.07156 | 8.63917 | 1871 ft | 136 kts | 249° |
| 2026-05-05 13:16 | 50.06800 | 8.62569 | 1703 ft | 134 kts | 248° |
| 2026-05-05 13:16 | 50.06457 | 8.61226 | 1516 ft | 134 kts | 251° |
| 2026-05-05 13:16 | 50.06147 | 8.59873 | 1379 ft | 130 kts | 250° |
| 2026-05-05 13:16 | 50.05835 | 8.58529 | 1156 ft | 133 kts | 250° |
| 2026-05-05 13:17 | 50.05504 | 8.57179 | 936 ft | 135 kts | 250° |
| 2026-05-05 13:17 | 50.05181 | 8.55807 | 749 ft | 134 kts | 250° |
| 2026-05-05 13:17 | 50.04849 | 8.54458 | 560 ft | 132 kts | 250° |
| 2026-05-05 13:17 | 50.04526 | 8.53134 | 376 ft | 128 kts | 250° |
| 2026-05-05 13:18 | 50.04256 | 8.52006 | 338 ft | 79 kts | 249° |
| 2026-05-05 13:18 | 50.04127 | 8.51591 | 335 ft | 17 kts | 227° |
| 2026-05-05 13:18 | 50.04033 | 8.51443 | 333 ft | 21 kts | 218° |
| 2026-05-05 13:18 | 50.03935 | 8.51359 | 333 ft | 14 kts | 166° |
| 2026-05-05 13:19 | 50.03913 | 8.51484 | 332 ft | 16 kts | 65° |
| 2026-05-05 13:19 | 50.03963 | 8.51685 | 336 ft | 21 kts | 70° |
| 2026-05-05 13:19 | 50.04015 | 8.51907 | 337 ft | 23 kts | 69° |
| 2026-05-05 13:19 | 50.04072 | 8.52143 | 348 ft | 23 kts | 70° |
| 2026-05-05 13:20 | 50.04131 | 8.52385 | 346 ft | 25 kts | 69° |
| 2026-05-05 13:20 | 50.04199 | 8.52674 | 353 ft | 32 kts | 70° |
| 2026-05-05 13:20 | 50.04254 | 8.52904 | 352 ft | 18 kts | 69° |
| 2026-05-05 13:20 | 50.04323 | 8.53191 | 356 ft | 44 kts | 69° |
| 2026-05-05 13:21 | 50.04394 | 8.53503 | 361 ft | 19 kts | 80° |
| 2026-05-05 13:21 | 50.04407 | 8.53716 | 361 ft | 20 kts | 84° |
| 2026-05-05 13:21 | 50.04422 | 8.53946 | 361 ft | 23 kts | 83° |
| 2026-05-05 13:21 | 50.04441 | 8.54206 | 361 ft | 26 kts | 84° |
| 2026-05-05 13:22 | 50.04452 | 8.54434 | 361 ft | 22 kts | 90° |
| 2026-05-05 13:22 | 50.04394 | 8.54675 | 361 ft | 28 kts | 129° |
| 2026-05-05 13:22 | 50.04220 | 8.54823 | 364 ft | 29 kts | 161° |
| 2026-05-05 13:22 | 50.04044 | 8.54925 | 361 ft | 20 kts | 160° |
| 2026-05-05 13:23 | 50.03987 | 8.54889 | 361 ft | 9 kts | 266° |
| 2026-05-05 13:23 | 50.03913 | 8.54868 | 362 ft | 12 kts | 160° |
| 2026-05-05 13:23 | 50.03882 | 8.54886 | 361 ft | 0 kts | 160° |
| 2026-05-05 13:23 | 50.03881 | 8.54886 | 361 ft | 0 kts | 160° |